createdAt,value
2019-04-23T00:02:16.618Z,2.97
2019-04-23T00:04:45.335Z,2.90
2019-04-23T00:07:33.557Z,3.00
2019-04-23T00:09:47.033Z,3.40
2019-04-23T00:12:30.002Z,2.87
2019-04-23T00:15:04.500Z,2.97
2019-04-23T00:17:22.667Z,3.03
2019-04-23T00:20:00.709Z,2.80
2019-04-23T00:22:45.086Z,2.90
2019-04-23T00:25:49.159Z,2.83
2019-04-23T00:28:23.063Z,3.07
2019-04-23T00:33:21.768Z,3.17
2019-04-23T00:35:44.007Z,2.93
2019-04-23T00:38:23.752Z,3.10
2019-04-23T00:40:47.463Z,3.03
2019-04-23T00:48:29.413Z,2.73
2019-04-23T00:50:59.105Z,2.87
2019-04-23T00:53:23.512Z,2.60
2019-04-23T00:56:03.864Z,3.07
2019-04-23T00:58:32.601Z,2.40
2019-04-23T01:00:52.814Z,2.70
2019-04-23T01:03:21.382Z,3.10
2019-04-23T01:05:52.267Z,2.33
2019-04-23T01:13:43.139Z,2.80
2019-04-23T01:21:07.682Z,2.63
2019-04-23T01:24:10.268Z,2.53
2019-04-23T01:27:35.842Z,2.90
2019-04-23T01:29:52.071Z,2.63
2019-04-23T01:32:20.974Z,3.10
2019-04-23T01:35:03.881Z,2.93
2019-04-23T01:37:25.625Z,2.90
2019-04-23T01:39:57.694Z,2.77
2019-04-23T01:45:01.358Z,2.73
2019-04-23T01:47:31.701Z,2.70
2019-04-23T01:50:12.781Z,2.33
2019-04-23T01:55:02.973Z,2.80
2019-04-23T01:57:37.514Z,2.40
2019-04-23T02:00:08.264Z,3.03
2019-04-23T02:02:43.819Z,3.20
2019-04-23T02:07:44.297Z,2.43
2019-04-23T02:10:18.312Z,2.60
2019-04-23T02:12:42.002Z,2.70
2019-04-23T02:15:13.825Z,2.57
2019-04-23T02:17:47.518Z,2.60
2019-04-23T02:20:17.946Z,2.60
2019-04-23T02:23:01.703Z,2.80
2019-04-23T02:25:40.819Z,2.70
2019-04-23T02:28:06.050Z,2.53
2019-04-23T02:38:09.961Z,2.67
2019-04-23T02:40:58.866Z,2.50
2019-04-23T02:45:51.338Z,2.50
2019-04-23T02:48:24.058Z,2.40
2019-04-23T02:50:48.779Z,2.50
2019-04-23T02:53:30.680Z,2.50
2019-04-23T03:01:08.869Z,2.53
2019-04-23T03:03:28.105Z,2.60
2019-04-23T03:05:49.298Z,2.60
2019-04-23T03:08:27.249Z,2.37
2019-04-23T03:13:48.262Z,2.47
2019-04-23T03:16:15.595Z,2.53
2019-04-23T03:22:23.431Z,2.43
2019-04-23T03:24:55.821Z,2.50
2019-04-23T03:27:31.616Z,2.53
2019-04-23T03:29:56.892Z,2.60
2019-04-23T03:37:34.092Z,2.57
2019-04-23T03:45:08.021Z,2.50
2019-04-23T03:50:04.556Z,2.60
2019-04-23T03:52:36.921Z,2.50
2019-04-23T03:55:05.755Z,2.53
2019-04-23T04:03:00.254Z,2.50
2019-04-23T04:05:10.841Z,2.60
2019-04-23T04:10:11.533Z,2.20
2019-04-23T04:15:41.673Z,2.50
2019-04-23T04:17:50.291Z,2.50
2019-04-23T04:20:32.990Z,2.50
2019-04-23T04:25:37.148Z,2.70
2019-04-23T04:30:22.231Z,2.30
2019-04-23T04:32:59.131Z,2.33
2019-04-23T04:38:13.001Z,2.60
2019-04-23T04:50:26.769Z,2.30
2019-04-23T04:53:18.361Z,2.70
2019-04-23T04:55:26.597Z,3.03
2019-04-23T05:00:50.698Z,2.60
2019-04-23T05:03:22.267Z,2.30
2019-04-23T05:08:11.445Z,2.80
2019-04-23T05:13:27.542Z,2.90
2019-04-23T05:15:41.031Z,2.70
2019-04-23T05:18:25.367Z,2.50
2019-04-23T05:21:06.156Z,2.60
2019-04-23T05:23:28.078Z,2.43
2019-04-23T05:25:58.815Z,2.70
2019-04-23T05:28:34.831Z,2.70
2019-04-23T05:31:02.364Z,2.77
2019-04-23T05:33:34.810Z,2.63
2019-04-23T05:36:13.076Z,2.80
2019-04-23T05:38:50.664Z,2.53
2019-04-23T05:41:15.326Z,2.97
2019-04-23T05:43:32.351Z,3.00
2019-04-23T05:46:04.728Z,2.87
2019-04-23T05:48:32.027Z,2.83
2019-04-23T05:51:10.919Z,2.87
2019-04-23T05:53:40.342Z,2.60
2019-04-23T05:56:09.086Z,2.67
2019-04-23T06:06:45.454Z,2.90
2019-04-23T06:11:58.659Z,2.83
2019-04-23T06:14:15.159Z,2.93
2019-04-23T06:16:55.263Z,3.27
2019-04-23T06:19:12.830Z,2.60
2019-04-23T06:21:50.941Z,2.70
2019-04-23T06:24:24.965Z,2.70
2019-04-23T06:26:45.798Z,2.70
2019-04-23T06:29:20.447Z,2.90
2019-04-23T06:31:50.687Z,3.03
2019-04-23T06:34:21.663Z,2.90
2019-04-23T06:37:05.319Z,2.80
2019-04-23T06:39:21.444Z,3.13
2019-04-23T06:44:27.846Z,2.80
2019-04-23T06:46:59.717Z,3.23
2019-04-23T06:49:30.745Z,4.27
2019-04-23T06:54:36.461Z,2.53
2019-04-23T06:57:11.851Z,3.00
2019-04-23T06:59:30.634Z,2.97
2019-04-23T07:02:07.449Z,3.10
2019-04-23T07:09:35.245Z,2.67
2019-04-23T07:12:08.911Z,3.20
2019-04-23T07:14:44.098Z,3.00
2019-04-23T07:17:08.547Z,3.20
2019-04-23T07:19:42.386Z,2.90
2019-04-23T07:24:43.654Z,3.20
2019-04-23T07:27:13.453Z,3.00
2019-04-23T07:29:47.037Z,3.00
2019-04-23T07:32:32.098Z,3.37
2019-04-23T07:34:57.414Z,3.03
2019-04-23T07:37:17.306Z,3.23
2019-04-23T07:40:09.661Z,3.40
2019-04-23T07:42:39.525Z,3.60
2019-04-23T07:45:18.924Z,3.43
2019-04-23T07:48:10.999Z,4.03
2019-04-23T07:50:41.205Z,3.03
2019-04-23T07:53:13.184Z,3.20
2019-04-23T07:55:48.475Z,3.30
2019-04-23T07:58:25.765Z,3.67
2019-04-23T08:05:39.619Z,3.57
2019-04-23T08:08:11.805Z,3.67
2019-04-23T08:11:14.360Z,3.67
2019-04-23T08:13:31.577Z,3.63
2019-04-23T08:15:58.550Z,3.83
2019-04-23T08:18:29.950Z,3.30
2019-04-23T08:20:54.210Z,3.70
2019-04-23T08:23:44.061Z,3.80
2019-04-23T08:29:05.501Z,3.73
2019-04-23T08:31:40.248Z,3.30
2019-04-23T08:39:05.356Z,3.97
2019-04-23T08:41:46.579Z,3.93
2019-04-23T08:44:16.906Z,3.83
2019-04-23T08:46:56.952Z,3.70
2019-04-23T08:54:39.312Z,4.33
2019-04-23T08:59:31.573Z,4.10
2019-04-23T09:02:15.902Z,4.20
2019-04-23T09:04:30.921Z,3.90
2019-04-23T09:07:09.735Z,3.93
2019-04-23T09:09:34.782Z,3.97
2019-04-23T09:11:59.575Z,4.13
2019-04-23T09:14:31.917Z,4.40
2019-04-23T09:17:04.853Z,4.40
2019-04-23T09:19:42.542Z,4.00
2019-04-23T09:22:14.527Z,4.30
2019-04-23T09:24:43.258Z,4.00
2019-04-23T09:27:16.385Z,4.10
2019-04-23T09:29:46.030Z,4.27
2019-04-23T09:35:24.035Z,4.43
2019-04-23T09:37:59.655Z,4.40
2019-04-23T09:41:15.738Z,4.20
2019-04-23T09:43:55.659Z,3.97
2019-04-23T09:46:36.139Z,4.30
2019-04-23T09:49:14.882Z,4.40
2019-04-23T09:51:49.342Z,4.30
2019-04-23T10:01:37.504Z,4.43
2019-04-23T10:04:00.180Z,4.47
2019-04-23T10:06:26.570Z,4.17
2019-04-23T10:08:57.684Z,4.13
2019-04-23T10:11:24.331Z,4.60
2019-04-23T10:13:54.794Z,4.57
2019-04-23T10:16:27.703Z,4.23
2019-04-23T10:18:57.272Z,4.67
2019-04-23T10:21:26.632Z,4.47
2019-04-23T10:23:57.119Z,4.40
2019-04-23T10:26:26.352Z,4.20
2019-04-23T10:29:02.591Z,4.57
2019-04-23T10:31:33.357Z,4.67
2019-04-23T10:34:04.191Z,4.43
2019-04-23T10:36:34.595Z,4.63
2019-04-23T10:39:11.556Z,5.17
2019-04-23T10:41:38.514Z,4.67
2019-04-23T10:44:23.458Z,4.73
2019-04-23T10:47:43.486Z,5.30
2019-04-23T10:50:38.811Z,5.00
2019-04-23T10:53:09.981Z,4.87
2019-04-23T10:55:38.132Z,4.90
2019-04-23T10:58:01.456Z,4.80
2019-04-23T11:00:37.656Z,5.03
2019-04-23T11:03:24.722Z,5.27
2019-04-23T11:08:06.125Z,5.00
2019-04-23T11:10:32.878Z,5.13
2019-04-23T11:13:21.966Z,5.03
2019-04-23T11:16:25.529Z,4.97
2019-04-23T11:18:14.201Z,4.80
2019-04-23T11:21:07.486Z,4.80
2019-04-23T11:23:12.981Z,4.90
2019-04-23T11:25:48.438Z,5.23
2019-04-23T11:28:25.726Z,5.10
2019-04-23T11:30:57.479Z,4.53
2019-04-23T11:33:40.289Z,4.50
2019-04-23T11:38:49.141Z,5.10
2019-04-23T11:41:12.848Z,4.53
2019-04-23T11:43:35.802Z,5.13
2019-04-23T11:46:19.388Z,5.33
2019-04-23T11:48:52.343Z,4.60
2019-04-23T11:53:58.131Z,4.50
2019-04-23T11:56:33.291Z,4.33
2019-04-23T11:58:42.742Z,5.43
2019-04-23T12:04:38.690Z,4.73
2019-04-23T12:07:15.243Z,4.80
2019-04-23T12:10:19.974Z,4.63
2019-04-23T12:12:33.253Z,4.70
2019-04-23T12:15:07.292Z,5.10
2019-04-23T12:17:44.313Z,4.93
2019-04-23T12:20:12.251Z,4.60
2019-04-23T12:22:51.532Z,4.63
2019-04-23T12:27:39.807Z,5.00
2019-04-23T12:30:21.013Z,4.90
2019-04-23T12:32:57.574Z,4.90
2019-04-23T12:45:33.523Z,4.70
2019-04-23T12:48:31.266Z,4.90
2019-04-23T12:53:10.599Z,4.80
2019-04-23T12:58:11.208Z,4.70
2019-04-23T13:00:36.976Z,5.07
2019-04-23T13:03:12.282Z,4.93
2019-04-23T13:05:33.996Z,5.40
2019-04-23T13:10:59.063Z,5.33
2019-04-23T13:13:23.941Z,5.63
2019-04-23T13:15:48.804Z,4.87
2019-04-23T13:18:17.151Z,5.17
2019-04-23T13:20:42.305Z,5.00
2019-04-23T13:23:22.209Z,5.00
2019-04-23T13:28:35.446Z,5.23
2019-04-23T13:31:12.999Z,5.50
2019-04-23T13:41:19.145Z,4.80
2019-04-23T13:43:48.590Z,5.07
2019-04-23T13:46:13.337Z,4.80
2019-04-23T13:48:41.700Z,4.60
2019-04-23T13:51:22.481Z,4.53
2019-04-23T13:54:06.120Z,4.53
2019-04-23T13:56:29.951Z,4.60
2019-04-23T13:58:53.159Z,4.87
2019-04-23T14:01:25.812Z,4.67
2019-04-23T14:04:00.107Z,4.60
2019-04-23T14:11:32.433Z,5.27
2019-04-23T14:13:55.593Z,5.07
2019-04-23T14:21:39.212Z,5.10
2019-04-23T14:24:11.907Z,4.73
2019-04-23T14:28:59.487Z,5.60
2019-04-23T14:31:30.385Z,4.83
2019-04-23T14:34:04.568Z,5.43
2019-04-23T14:39:15.655Z,5.73
2019-04-23T14:41:53.020Z,5.00
2019-04-23T14:44:23.735Z,4.93
2019-04-23T14:46:50.407Z,4.97
2019-04-23T14:49:27.388Z,4.87
2019-04-23T14:54:50.456Z,5.23
2019-04-23T14:57:07.894Z,5.50
2019-04-23T14:59:19.794Z,6.13
2019-04-23T15:04:32.095Z,5.20
2019-04-23T15:07:11.311Z,4.77
2019-04-23T15:14:46.387Z,4.80
2019-04-23T15:17:15.177Z,4.80
2019-04-23T15:19:50.542Z,4.90
2019-04-23T15:24:53.560Z,4.47
2019-04-23T15:29:42.115Z,5.10
2019-04-23T15:35:00.997Z,4.90
2019-04-23T15:37:41.014Z,5.63
2019-04-23T15:42:25.455Z,4.53
2019-04-23T15:45:02.868Z,5.40
2019-04-23T15:50:10.165Z,4.90
2019-04-23T15:52:39.663Z,5.30
2019-04-23T15:58:37.237Z,4.50
2019-04-23T15:59:58.862Z,4.90
2019-04-23T16:02:04.801Z,5.40
2019-04-23T16:04:33.970Z,4.70
2019-04-23T16:07:04.456Z,4.83
2019-04-23T16:10:08.997Z,5.13
2019-04-23T16:12:31.741Z,5.30
2019-04-23T16:17:35.828Z,5.07
2019-04-23T16:20:31.986Z,5.07
2019-04-23T16:22:50.841Z,4.97
2019-04-23T16:25:22.152Z,5.00
2019-04-23T16:27:59.985Z,4.83
2019-04-23T16:30:28.737Z,5.00
2019-04-23T16:35:58.461Z,5.63
2019-04-23T16:38:38.718Z,5.83
2019-04-23T16:41:13.776Z,5.13
2019-04-23T16:43:28.701Z,5.33
2019-04-23T16:46:07.226Z,5.53
2019-04-23T16:53:29.939Z,5.33
2019-04-23T16:56:13.512Z,5.37
2019-04-23T16:58:44.581Z,6.17
2019-04-23T17:01:09.558Z,5.83
2019-04-23T17:03:38.299Z,6.40
2019-04-23T17:06:27.966Z,5.80
2019-04-23T17:08:53.946Z,5.63
2019-04-23T17:11:15.723Z,5.20
2019-04-23T17:14:02.688Z,5.70
2019-04-23T17:16:26.963Z,5.83
2019-04-23T17:18:49.762Z,5.40
2019-04-23T17:21:18.045Z,5.27
2019-04-23T17:28:52.250Z,5.67
2019-04-23T17:33:59.105Z,5.10
2019-04-23T17:36:30.745Z,5.50
2019-04-23T17:39:10.579Z,4.87
2019-04-23T17:42:05.504Z,5.47
2019-04-23T17:44:38.731Z,5.67
2019-04-23T17:47:06.740Z,5.70
2019-04-23T17:49:46.210Z,5.97
2019-04-23T17:52:14.751Z,5.57
2019-04-23T17:54:41.114Z,5.87
2019-04-23T18:07:38.056Z,5.33
2019-04-23T18:10:09.927Z,5.70
2019-04-23T18:12:40.546Z,5.50
2019-04-23T18:15:02.592Z,5.50
2019-04-23T18:17:49.514Z,5.80
2019-04-23T18:20:13.402Z,5.60
2019-04-23T18:22:47.173Z,5.80
2019-04-23T18:25:37.403Z,5.33
2019-04-23T18:27:55.113Z,5.97
2019-04-23T18:31:05.907Z,5.20
2019-04-23T18:36:08.124Z,5.20
2019-04-23T18:38:39.750Z,5.57
2019-04-23T18:43:42.915Z,5.47
2019-04-23T18:48:49.726Z,5.77
2019-04-23T18:51:12.528Z,5.73
2019-04-23T18:56:19.472Z,6.27
2019-04-23T19:01:27.917Z,6.47
2019-04-23T19:04:19.578Z,6.47
2019-04-23T19:06:51.196Z,6.70
2019-04-23T19:10:15.754Z,6.33
2019-04-23T19:12:41.430Z,6.97
2019-04-23T19:15:15.188Z,6.20
2019-04-23T19:20:16.225Z,6.30
2019-04-23T19:22:49.234Z,6.40
2019-04-23T19:25:14.487Z,6.43
2019-04-23T19:27:45.508Z,6.73
2019-04-23T19:33:05.590Z,6.27
2019-04-23T19:35:59.800Z,5.93
2019-04-23T19:38:13.437Z,7.00
2019-04-23T19:40:50.503Z,6.03
2019-04-23T19:43:12.103Z,7.00
2019-04-23T19:45:50.196Z,6.47
2019-04-23T19:48:18.478Z,6.73
2019-04-23T19:51:03.150Z,6.63
2019-04-23T19:53:25.338Z,6.80
2019-04-23T19:56:05.575Z,7.03
2019-04-23T19:58:26.178Z,6.90
2019-04-23T20:06:02.958Z,6.70
2019-04-23T20:08:34.528Z,7.53
2019-04-23T20:10:54.421Z,7.20
2019-04-23T20:13:39.241Z,6.77
2019-04-23T20:18:42.968Z,7.30
2019-04-23T20:20:59.457Z,6.87
2019-04-23T20:24:02.948Z,6.17
2019-04-23T20:29:10.364Z,6.73
2019-04-23T20:39:33.275Z,6.60
2019-04-23T20:44:43.295Z,6.57
2019-04-23T20:47:06.370Z,6.90
2019-04-23T20:49:38.558Z,6.30
2019-04-23T20:54:42.144Z,6.57
2019-04-23T20:57:42.834Z,6.30
2019-04-23T21:00:01.897Z,6.80
2019-04-23T21:03:25.954Z,6.70
2019-04-23T21:05:29.546Z,6.97
2019-04-23T21:10:35.769Z,6.90
2019-04-23T21:13:08.362Z,6.47
2019-04-23T21:20:38.068Z,6.80
2019-04-23T21:36:35.530Z,7.50
2019-04-23T21:39:06.195Z,7.10
2019-04-23T21:44:28.929Z,6.97
2019-04-23T21:46:51.142Z,6.83
2019-04-23T21:51:51.181Z,6.97
2019-04-23T21:54:22.967Z,7.13
2019-04-23T21:59:22.775Z,7.30
2019-04-23T22:01:58.948Z,7.70
2019-04-23T22:04:34.218Z,7.43
2019-04-23T22:09:34.701Z,7.13
2019-04-23T22:12:03.909Z,7.70
2019-04-23T22:14:36.708Z,7.20
2019-04-23T22:17:04.971Z,7.60
2019-04-23T22:24:46.635Z,7.23
2019-04-23T22:27:08.601Z,7.03
2019-04-23T22:29:51.952Z,7.23
2019-04-23T22:32:07.248Z,6.77
2019-04-23T22:39:45.736Z,7.20
2019-04-23T22:42:36.347Z,7.40
2019-04-23T22:44:57.478Z,7.30
2019-04-23T22:47:08.821Z,7.13
2019-04-23T22:50:02.708Z,7.30
2019-04-23T22:52:31.466Z,7.13
2019-04-23T22:55:07.389Z,7.57
2019-04-23T22:57:56.723Z,8.13
2019-04-23T23:00:13.472Z,7.70
2019-04-23T23:08:20.412Z,7.53
2019-04-23T23:10:57.525Z,7.60
2019-04-23T23:13:35.442Z,7.37
2019-04-23T23:16:01.533Z,7.63
2019-04-23T23:18:24.763Z,8.07
2019-04-23T23:21:04.082Z,7.47
2019-04-23T23:26:09.717Z,7.87
2019-04-23T23:28:38.085Z,8.00
2019-04-23T23:31:06.525Z,7.57
2019-04-23T23:36:12.443Z,8.03
2019-04-23T23:38:41.769Z,7.60
2019-04-23T23:43:43.922Z,8.20
2019-04-23T23:46:29.377Z,7.67
2019-04-23T23:48:43.828Z,8.57
2019-04-23T23:54:06.609Z,8.23
2019-04-23T23:56:14.300Z,8.50
